createdAt,value
2019-05-23T00:01:05.586Z,5.40
2019-05-23T00:03:50.731Z,5.90
2019-05-23T00:06:21.957Z,5.60
2019-05-23T00:08:52.736Z,4.33
2019-05-23T00:11:45.076Z,4.40
2019-05-23T00:14:31.192Z,5.28
2019-05-23T00:17:01.809Z,5.00
2019-05-23T00:19:32.530Z,6.40
2019-05-23T00:22:03.645Z,5.50
2019-05-23T00:24:33.060Z,5.00
2019-05-23T00:27:05.140Z,4.85
2019-05-23T00:29:34.744Z,4.85
2019-05-23T00:32:17.274Z,5.00
2019-05-23T00:34:47.376Z,5.67
2019-05-23T00:37:16.316Z,5.80
2019-05-23T00:39:47.612Z,5.57
2019-05-23T00:42:17.536Z,5.60
2019-05-23T00:44:47.100Z,5.53
2019-05-23T00:47:17.101Z,5.17
2019-05-23T00:49:47.089Z,4.72
2019-05-23T00:52:16.986Z,4.85
2019-05-23T00:54:47.312Z,5.05
2019-05-23T00:57:17.045Z,5.90
2019-05-23T00:59:47.717Z,6.10
2019-05-23T01:02:17.059Z,4.80
2019-05-23T06:07:38.366Z,9.60
2019-05-23T06:10:12.154Z,10.50
2019-05-23T06:12:41.362Z,9.13
2019-05-23T06:15:10.969Z,9.27
2019-05-23T06:17:40.841Z,10.30
2019-05-23T06:20:10.104Z,11.40
2019-05-23T06:22:40.555Z,11.50
2019-05-23T06:25:11.962Z,11.73
2019-05-23T06:27:42.219Z,11.20
2019-05-23T06:30:12.575Z,11.60
2019-05-23T06:32:42.224Z,11.07
2019-05-23T06:35:12.297Z,10.80
2019-05-23T06:37:41.831Z,13.30
2019-05-23T06:40:11.771Z,10.87
2019-05-23T06:42:40.905Z,11.63
2019-05-23T06:45:11.197Z,12.20
2019-05-23T06:47:40.614Z,13.50
2019-05-23T06:50:13.701Z,13.30
2019-05-23T06:52:43.781Z,12.93
2019-05-23T06:55:12.853Z,11.40
2019-05-23T06:57:42.101Z,12.17
2019-05-23T07:00:11.530Z,13.17
2019-05-23T07:02:41.266Z,12.20
2019-05-23T07:05:10.488Z,13.33
2019-05-23T07:07:41.296Z,12.80
2019-05-23T07:10:10.698Z,13.90
2019-05-23T07:12:39.869Z,12.17
2019-05-23T07:15:10.442Z,14.33
2019-05-23T07:17:39.489Z,14.00
2019-05-23T07:20:10.305Z,12.77
2019-05-23T07:22:39.651Z,13.97
2019-05-23T07:25:10.555Z,11.80
2019-05-23T07:27:39.936Z,11.80
2019-05-23T07:30:13.248Z,13.60
2019-05-23T07:32:42.300Z,11.87
2019-05-23T07:35:11.363Z,13.60
2019-05-23T07:37:40.736Z,12.00
2019-05-23T07:40:09.803Z,11.90
2019-05-23T07:42:39.519Z,12.20
2019-05-23T07:45:12.078Z,12.93
2019-05-23T07:47:41.536Z,12.53
2019-05-23T07:50:12.578Z,12.33
2019-05-23T07:52:42.395Z,11.80
2019-05-23T07:55:20.293Z,10.47
2019-05-23T07:57:49.676Z,12.53
2019-05-23T08:00:22.955Z,11.80
2019-05-23T08:02:52.523Z,13.43
2019-05-23T08:05:22.978Z,10.30
2019-05-23T08:07:53.273Z,10.13
2019-05-23T08:10:33.248Z,10.83
2019-05-23T08:12:54.473Z,10.37
2019-05-23T08:15:24.502Z,11.80
2019-05-23T08:17:54.631Z,10.43
2019-05-23T08:20:24.537Z,10.23
2019-05-23T08:22:54.479Z,9.53
2019-05-23T08:25:23.565Z,10.80
2019-05-23T08:27:53.103Z,10.07
2019-05-23T08:30:22.464Z,8.67
2019-05-23T08:32:51.524Z,10.03
2019-05-23T08:35:20.777Z,9.63
2019-05-23T08:37:50.100Z,9.30
2019-05-23T08:40:19.874Z,8.83
2019-05-23T08:42:49.122Z,9.20
2019-05-23T08:45:18.891Z,9.40
2019-05-23T08:47:48.218Z,11.00
2019-05-23T08:50:19.201Z,8.80
2019-05-23T08:52:48.804Z,9.63
2019-05-23T08:55:21.183Z,7.17
2019-05-23T08:57:50.654Z,8.60
2019-05-23T09:00:21.949Z,7.90
2019-05-23T09:02:51.808Z,8.33
2019-05-23T09:05:23.869Z,7.90
2019-05-23T09:07:53.706Z,8.10
2019-05-23T09:10:23.343Z,7.87
2019-05-23T09:12:52.433Z,8.30
2019-05-23T09:15:22.684Z,8.50
2019-05-23T09:17:54.112Z,6.73
2019-05-23T09:20:23.248Z,6.07
2019-05-23T09:22:52.904Z,7.13
2019-05-23T09:25:21.964Z,6.93
2019-05-23T09:27:53.622Z,7.70
2019-05-23T09:30:23.715Z,7.23
2019-05-23T09:32:53.071Z,6.53
2019-05-23T09:35:22.460Z,7.90
2019-05-23T09:37:51.785Z,7.67
2019-05-23T09:40:21.609Z,7.83
2019-05-23T09:42:50.977Z,8.57
2019-05-23T09:45:20.243Z,7.60
2019-05-23T09:47:51.241Z,6.70
2019-05-23T09:50:23.473Z,6.57
2019-05-23T09:52:52.884Z,10.47
2019-05-23T09:55:22.631Z,9.43
2019-05-23T09:57:52.308Z,9.20
2019-05-23T10:00:22.602Z,6.30
2019-05-23T10:02:52.360Z,7.00
2019-05-23T10:05:40.923Z,6.10
2019-05-23T10:07:52.777Z,6.40
2019-05-23T10:10:23.433Z,6.20
2019-05-23T10:12:52.495Z,5.93
2019-05-23T10:15:33.288Z,5.90
2019-05-23T10:18:02.696Z,5.50
2019-05-23T10:20:34.688Z,5.57
2019-05-23T10:23:04.647Z,5.87
2019-05-23T10:25:34.260Z,5.40
2019-05-23T10:28:03.689Z,4.97
2019-05-23T10:30:32.735Z,5.60
2019-05-23T10:33:01.792Z,5.63
2019-05-23T10:35:31.973Z,6.87
2019-05-23T10:38:01.378Z,5.50
2019-05-23T10:40:30.778Z,6.20
2019-05-23T10:43:00.282Z,5.90
2019-05-23T10:45:29.994Z,6.43
2019-05-23T10:47:59.054Z,6.20
2019-05-23T10:50:43.534Z,5.80
2019-05-23T10:52:59.863Z,6.57
2019-05-23T10:55:29.249Z,6.00
2019-05-23T10:57:58.293Z,5.40
2019-05-23T11:00:28.826Z,6.00
2019-05-23T11:02:58.674Z,5.40
2019-05-23T11:05:28.073Z,5.27
2019-05-23T11:07:57.920Z,5.90
2019-05-23T11:10:27.745Z,3.93
2019-05-23T11:12:56.969Z,4.80
2019-05-23T11:15:26.507Z,4.40
2019-05-23T11:17:55.993Z,4.43
2019-05-23T11:20:26.133Z,5.80
2019-05-23T11:22:55.732Z,4.77
2019-05-23T11:25:26.164Z,4.27
2019-05-23T11:27:55.556Z,4.30
2019-05-23T11:30:43.801Z,4.70
2019-05-23T11:33:14.072Z,4.80
2019-05-23T11:35:44.344Z,4.73
2019-05-23T11:38:13.780Z,4.77
2019-05-23T11:40:43.864Z,4.03
2019-05-23T11:43:13.064Z,5.07
2019-05-23T11:45:57.725Z,4.27
2019-05-23T11:48:27.637Z,3.83
2019-05-23T11:50:57.076Z,4.27
2019-05-23T11:53:26.958Z,3.77
2019-05-23T11:55:56.638Z,4.80
2019-05-23T11:58:25.972Z,4.10
2019-05-23T12:01:21.273Z,4.03
2019-05-23T12:03:55.055Z,4.20
2019-05-23T12:06:26.558Z,4.33
2019-05-23T12:08:56.154Z,4.87
2019-05-23T12:11:25.496Z,5.67
2019-05-23T12:13:54.937Z,5.17
2019-05-23T12:16:24.867Z,5.00
2019-05-23T12:18:53.921Z,4.97
2019-05-23T12:21:23.477Z,4.70
2019-05-23T12:23:52.628Z,4.17
2019-05-23T12:26:22.167Z,4.00
2019-05-23T12:28:51.219Z,4.67
2019-05-23T12:31:20.548Z,5.00
2019-05-23T12:33:50.261Z,4.83
2019-05-23T12:36:20.183Z,3.87
2019-05-23T12:38:49.583Z,4.20
2019-05-23T12:41:19.027Z,4.10
2019-05-23T12:43:48.089Z,3.80
2019-05-23T12:46:17.742Z,4.00
2019-05-23T12:48:59.778Z,4.70
2019-05-23T12:51:31.385Z,4.40
2019-05-23T12:54:00.517Z,4.50
2019-05-23T12:56:30.319Z,3.80
2019-05-23T12:59:00.325Z,4.20
2019-05-23T13:01:30.881Z,4.30
2019-05-23T13:04:00.245Z,3.80
2019-05-23T13:06:30.396Z,3.80
2019-05-23T13:09:00.273Z,3.50
2019-05-23T13:11:30.418Z,4.03
2019-05-23T13:13:59.548Z,4.20
2019-05-23T13:16:29.167Z,4.03
2019-05-23T13:18:58.606Z,4.97
2019-05-23T13:21:28.597Z,5.20
2019-05-23T13:23:58.364Z,4.60
2019-05-23T13:26:28.056Z,5.40
2019-05-23T13:28:57.476Z,4.63
2019-05-23T13:31:26.913Z,4.40
2019-05-23T13:33:56.901Z,4.10
2019-05-23T13:36:25.953Z,4.10
2019-05-23T13:38:55.548Z,5.20
2019-05-23T13:41:24.911Z,4.33
2019-05-23T13:43:54.337Z,4.23
2019-05-23T13:46:23.393Z,4.00
2019-05-23T13:48:53.104Z,4.00
2019-05-23T13:51:22.517Z,4.13
2019-05-23T13:53:51.573Z,4.50
2019-05-23T13:56:21.174Z,4.00
2019-05-23T13:58:50.447Z,3.77
2019-05-23T14:01:19.914Z,3.80
2019-05-23T14:03:49.527Z,4.40
2019-05-23T14:06:19.314Z,5.43
2019-05-23T14:08:48.637Z,4.30
2019-05-23T14:11:18.278Z,3.80
2019-05-23T14:13:47.528Z,3.80
2019-05-23T14:16:16.871Z,4.07
2019-05-23T14:18:46.853Z,4.43
2019-05-23T14:21:15.975Z,4.83
2019-05-23T14:23:45.416Z,3.00
2019-05-23T14:26:16.265Z,3.77
2019-05-23T14:28:45.948Z,3.77
2019-05-23T14:31:23.057Z,4.13
2019-05-23T14:34:03.651Z,3.90
2019-05-23T14:36:50.899Z,4.10
2019-05-23T14:39:26.990Z,4.20
2019-05-23T14:42:11.480Z,4.50
2019-05-23T14:44:40.532Z,4.70
2019-05-23T14:47:38.029Z,3.80
2019-05-23T14:50:29.244Z,3.90
2019-05-23T14:53:00.335Z,3.60
2019-05-23T14:55:29.388Z,4.50
2019-05-23T14:57:59.426Z,3.47
2019-05-23T15:00:29.652Z,4.03
2019-05-23T15:02:59.423Z,4.50
2019-05-23T15:05:29.299Z,4.53
2019-05-23T15:07:58.774Z,4.20
2019-05-23T15:10:28.501Z,4.77
2019-05-23T15:12:57.541Z,4.80
2019-05-23T15:15:26.966Z,4.20
2019-05-23T15:17:56.972Z,3.80
2019-05-23T15:20:26.326Z,3.33
2019-05-23T15:22:59.707Z,3.77
2019-05-23T15:25:26.445Z,3.73
2019-05-23T15:27:55.800Z,3.60
2019-05-23T15:30:24.924Z,4.43
2019-05-23T15:32:54.338Z,4.07
2019-05-23T15:35:23.524Z,4.40
2019-05-23T15:37:52.620Z,3.33
2019-05-23T15:40:22.888Z,4.40
2019-05-23T15:42:52.509Z,3.60
2019-05-23T15:45:21.732Z,3.90
2019-05-23T15:47:50.807Z,3.90
2019-05-23T15:50:22.364Z,4.27
2019-05-23T15:53:00.552Z,4.10
2019-05-23T15:55:37.428Z,3.90
2019-05-23T15:58:13.792Z,3.90
2019-05-23T16:00:58.269Z,4.00
2019-05-23T16:03:35.109Z,3.23
2019-05-23T16:06:06.112Z,3.40
2019-05-23T16:08:35.625Z,3.63
2019-05-23T16:11:05.196Z,3.93
2019-05-23T16:13:34.701Z,3.60
2019-05-23T16:16:03.811Z,3.53
2019-05-23T16:18:33.544Z,3.87
2019-05-23T16:21:02.710Z,3.53
2019-05-23T16:23:32.516Z,3.73
2019-05-23T16:26:02.225Z,3.57
2019-05-23T16:28:32.038Z,4.50
2019-05-23T16:31:01.212Z,4.17
2019-05-23T16:33:30.312Z,3.37
2019-05-23T16:35:59.729Z,3.33
2019-05-23T16:38:29.265Z,4.00
2019-05-23T16:40:58.678Z,4.60
2019-05-23T16:43:27.785Z,3.47
2019-05-23T16:45:56.848Z,3.97
2019-05-23T16:48:26.015Z,3.83
2019-05-23T16:50:55.781Z,3.03
2019-05-23T16:53:26.478Z,3.60
2019-05-23T16:56:20.753Z,4.20
2019-05-23T16:59:03.772Z,4.20
2019-05-23T17:02:05.625Z,2.80
2019-05-23T17:04:39.208Z,3.33
2019-05-23T17:07:30.348Z,3.77
2019-05-23T17:10:17.253Z,2.07
2019-05-23T17:12:58.315Z,3.30
2019-05-23T17:15:46.793Z,3.00
2019-05-23T17:18:34.270Z,2.60
2019-05-23T17:21:17.040Z,2.40
2019-05-23T17:23:58.373Z,2.60
2019-05-23T17:26:46.509Z,2.53
2019-05-23T17:29:46.548Z,2.80
2019-05-23T17:32:19.560Z,2.50
2019-05-23T17:34:48.886Z,2.40
2019-05-23T17:37:19.618Z,1.70
2019-05-23T17:39:48.840Z,2.67
2019-05-23T17:42:18.028Z,2.23
2019-05-23T17:44:47.273Z,2.40
2019-05-23T17:47:16.749Z,2.70
2019-05-23T17:49:46.060Z,1.90
2019-05-23T17:52:16.375Z,2.40
2019-05-23T17:54:45.780Z,1.97
2019-05-23T17:57:15.436Z,2.20
2019-05-23T17:59:44.845Z,2.13
2019-05-23T18:02:15.768Z,1.97
2019-05-23T18:04:45.297Z,2.20
2019-05-23T18:07:14.925Z,2.20
2019-05-23T18:09:43.992Z,2.10
2019-05-23T18:12:13.413Z,1.97
2019-05-23T18:14:43.071Z,2.00
2019-05-23T18:17:12.719Z,2.10
2019-05-23T18:19:41.953Z,2.30
2019-05-23T18:22:12.796Z,1.77
2019-05-23T18:24:42.440Z,1.97
2019-05-23T18:27:12.282Z,1.80
2019-05-23T18:29:41.415Z,2.30
2019-05-23T18:32:16.024Z,1.80
2019-05-23T18:34:45.664Z,1.70
2019-05-23T18:37:15.537Z,2.37
2019-05-23T18:39:45.068Z,2.27
2019-05-23T18:42:14.216Z,2.10
2019-05-23T18:44:44.281Z,1.70
2019-05-23T18:47:19.866Z,2.17
2019-05-23T18:49:49.324Z,1.87
2019-05-23T18:52:18.671Z,2.30
2019-05-23T18:54:47.998Z,2.30
2019-05-23T18:57:17.292Z,2.00
2019-05-23T18:59:46.378Z,2.10
2019-05-23T19:02:15.864Z,2.20
2019-05-23T19:04:45.217Z,3.17
2019-05-23T19:07:14.269Z,2.13
2019-05-23T19:09:43.921Z,2.10
2019-05-23T19:12:13.465Z,2.40
2019-05-23T19:14:42.793Z,2.57
2019-05-23T19:17:12.402Z,2.03
2019-05-23T19:19:42.957Z,2.00
2019-05-23T19:22:12.216Z,1.80
2019-05-23T19:24:41.275Z,2.10
2019-05-23T19:27:14.083Z,2.10
2019-05-23T19:29:42.716Z,2.30
2019-05-23T19:32:12.403Z,2.47
2019-05-23T19:34:41.802Z,1.83
2019-05-23T19:37:10.863Z,2.60
2019-05-23T19:39:41.241Z,2.10
2019-05-23T19:42:10.563Z,2.13
2019-05-23T19:44:39.903Z,2.30
2019-05-23T19:47:09.228Z,1.87
2019-05-23T19:49:38.750Z,3.17
2019-05-23T19:52:08.057Z,2.60
2019-05-23T19:54:37.837Z,3.00
2019-05-23T19:57:07.852Z,2.50
2019-05-23T19:59:36.912Z,3.03
2019-05-23T20:02:23.977Z,2.93
2019-05-23T20:04:58.672Z,2.50
2019-05-23T20:07:28.260Z,2.43
2019-05-23T20:09:57.610Z,2.50
2019-05-23T20:12:27.449Z,3.57
2019-05-23T20:14:57.317Z,4.57
2019-05-23T20:17:27.017Z,3.40
2019-05-23T20:19:56.354Z,3.13
2019-05-23T20:22:25.929Z,3.57
2019-05-23T20:24:55.238Z,3.23
2019-05-23T20:27:24.532Z,3.17
2019-05-23T20:29:53.600Z,2.80
2019-05-23T20:32:23.456Z,3.00
2019-05-23T20:34:52.526Z,3.97
2019-05-23T20:37:22.805Z,3.30
2019-05-23T20:39:52.121Z,3.27
2019-05-23T20:42:21.300Z,3.03
2019-05-23T20:44:50.887Z,2.80
2019-05-23T20:47:20.196Z,2.63
2019-05-23T20:49:49.501Z,2.30
2019-05-23T20:52:18.811Z,2.20
